createdAt,value
2019-06-10T00:00:42.021Z,54.20
2019-06-10T00:03:11.688Z,56.24
2019-06-10T00:05:41.506Z,55.38
2019-06-10T00:08:11.822Z,56.88
2019-06-10T00:10:42.077Z,54.44
2019-06-10T00:13:11.748Z,55.17
2019-06-10T00:15:41.182Z,53.61
2019-06-10T00:18:33.470Z,54.90
2019-06-10T00:20:41.023Z,54.56
2019-06-10T00:23:12.311Z,52.36
2019-06-10T00:25:41.336Z,51.55
2019-06-10T00:28:12.017Z,52.00
2019-06-10T00:30:41.630Z,51.87
2019-06-10T00:33:12.578Z,49.79
2019-06-10T00:35:41.620Z,52.73
2019-06-10T00:38:14.022Z,51.98
2019-06-10T00:40:41.915Z,52.51
2019-06-10T00:43:13.088Z,52.99
2019-06-10T00:45:41.434Z,53.92
2019-06-10T00:48:20.220Z,53.73
2019-06-10T00:50:41.730Z,54.54
2019-06-10T00:53:13.973Z,53.98
2019-06-10T00:55:41.730Z,55.11
2019-06-10T00:58:13.625Z,54.96
2019-06-10T01:00:41.833Z,56.34
2019-06-10T01:03:14.622Z,60.16
2019-06-10T01:05:42.227Z,62.54
2019-06-10T01:08:13.900Z,63.12
2019-06-10T01:10:43.825Z,63.15
2019-06-10T01:13:14.052Z,62.74
2019-06-10T01:15:42.674Z,62.03
2019-06-10T01:18:30.314Z,64.59
2019-06-10T01:20:41.806Z,65.62
2019-06-10T01:23:13.600Z,68.67
2019-06-10T01:25:42.194Z,69.11
2019-06-10T01:28:14.550Z,70.48
2019-06-10T01:30:41.799Z,70.37
2019-06-10T01:33:12.731Z,71.97
2019-06-10T01:35:41.694Z,74.42
2019-06-10T01:38:12.825Z,75.69
2019-06-10T01:40:42.105Z,77.15
2019-06-10T01:43:13.546Z,75.27
2019-06-10T01:45:42.169Z,73.50
2019-06-10T01:48:13.381Z,75.60
2019-06-10T01:50:41.661Z,73.81
2019-06-10T01:53:13.791Z,74.20
2019-06-10T01:55:41.910Z,74.87
2019-06-10T01:58:14.707Z,73.32
2019-06-10T02:00:50.771Z,71.34
2019-06-10T02:03:21.347Z,71.68
2019-06-10T02:05:51.644Z,73.69
2019-06-10T02:08:22.257Z,76.72
2019-06-10T02:10:50.936Z,77.22
2019-06-10T02:13:32.499Z,76.73
2019-06-10T02:16:02.445Z,77.79
2019-06-10T02:18:32.202Z,70.20
2019-06-10T02:21:01.466Z,72.72
2019-06-10T02:23:31.473Z,74.43
2019-06-10T02:26:01.717Z,74.98
2019-06-10T02:28:31.702Z,74.52
2019-06-10T02:31:03.486Z,70.75
2019-06-10T02:33:36.229Z,72.00
2019-06-10T02:36:04.122Z,73.11
2019-06-10T02:38:35.581Z,71.83
2019-06-10T02:41:04.498Z,72.17
2019-06-10T02:43:37.474Z,69.64
2019-06-10T02:46:04.731Z,70.21
2019-06-10T02:48:34.985Z,68.64
2019-06-10T02:51:06.732Z,71.56
2019-06-10T02:53:37.202Z,68.12
2019-06-10T02:56:12.463Z,66.28
2019-06-10T02:58:44.984Z,66.81
2019-06-10T03:01:14.704Z,66.11
2019-06-10T03:03:48.169Z,68.97
2019-06-10T03:06:14.393Z,68.76
2019-06-10T03:08:43.657Z,68.22
2019-06-10T03:11:14.072Z,68.51
2019-06-10T03:13:42.857Z,67.75
2019-06-10T03:16:13.267Z,66.86
2019-06-10T03:18:43.435Z,67.06
2019-06-10T03:21:12.513Z,67.29
2019-06-10T03:23:42.707Z,64.98
2019-06-10T03:26:12.369Z,65.53
2019-06-10T03:28:42.762Z,67.07
2019-06-10T03:31:15.091Z,66.42
2019-06-10T03:33:47.244Z,65.53
2019-06-10T03:36:12.578Z,66.16
2019-06-10T03:38:43.304Z,66.67
2019-06-10T03:41:12.637Z,67.96
2019-06-10T03:43:42.950Z,69.76
2019-06-10T03:46:13.535Z,65.70
2019-06-10T03:48:43.312Z,67.63
2019-06-10T03:51:12.696Z,68.79
2019-06-10T03:53:42.647Z,70.50
2019-06-10T03:56:12.871Z,71.98
2019-06-10T03:58:43.091Z,68.53
2019-06-10T04:01:12.574Z,69.93
2019-06-10T04:03:42.714Z,64.86
2019-06-10T04:06:13.063Z,63.74
2019-06-10T04:08:43.317Z,63.53
2019-06-10T04:11:12.416Z,64.00
2019-06-10T04:13:43.163Z,64.11
2019-06-10T04:16:12.979Z,63.42
2019-06-10T04:18:43.027Z,63.12
2019-06-10T04:21:12.845Z,64.13
2019-06-10T04:23:42.336Z,67.63
2019-06-10T04:26:12.809Z,65.47
2019-06-10T04:28:42.978Z,65.68
2019-06-10T04:31:13.156Z,68.01
2019-06-10T04:33:42.339Z,67.84
2019-06-10T04:36:13.196Z,67.79
2019-06-10T04:38:43.217Z,66.64
2019-06-10T04:41:12.594Z,67.51
2019-06-10T04:43:43.287Z,68.01
2019-06-10T04:46:12.803Z,66.69
2019-06-10T04:48:42.780Z,67.22
2019-06-10T04:51:12.955Z,71.86
2019-06-10T04:53:43.612Z,67.52
2019-06-10T04:56:12.537Z,68.88
2019-06-10T04:58:43.306Z,68.88
2019-06-10T05:01:12.409Z,71.52
2019-06-10T05:03:43.134Z,71.59
2019-06-10T05:06:12.266Z,72.88
2019-06-10T05:08:42.751Z,70.90
2019-06-10T05:11:12.830Z,71.95
2019-06-10T05:13:42.947Z,72.65
2019-06-10T05:16:12.612Z,72.76
2019-06-10T05:18:42.450Z,73.21
2019-06-10T05:21:13.150Z,73.46
2019-06-10T05:23:42.965Z,69.48
2019-06-10T05:26:13.298Z,71.65
2019-06-10T05:28:43.208Z,68.33
2019-06-10T05:31:13.003Z,70.45
2019-06-10T05:33:42.657Z,66.34
2019-06-10T05:36:13.242Z,67.07
2019-06-10T05:38:43.496Z,67.53
2019-06-10T05:41:13.347Z,69.08
2019-06-10T05:43:43.032Z,67.45
2019-06-10T05:46:13.411Z,66.11
2019-06-10T05:48:43.733Z,68.28
2019-06-10T05:51:12.663Z,66.20
2019-06-10T05:53:42.263Z,66.78
2019-06-10T05:56:12.794Z,65.39
2019-06-10T05:58:43.720Z,65.77
2019-06-10T06:01:13.250Z,65.76
2019-06-10T06:03:43.872Z,65.84
2019-06-10T06:06:12.787Z,66.25
2019-06-10T06:08:42.877Z,63.25
2019-06-10T06:11:12.607Z,64.13
2019-06-10T06:13:43.233Z,64.04
2019-06-10T06:16:12.684Z,66.58
2019-06-10T06:18:42.335Z,64.72
2019-06-10T06:21:25.339Z,67.22
2019-06-10T06:23:43.724Z,66.04
2019-06-10T06:26:16.391Z,68.96
2019-06-10T06:28:43.305Z,66.86
2019-06-10T06:31:12.873Z,69.24
2019-06-10T06:33:43.307Z,67.10
2019-06-10T06:36:12.715Z,66.66
2019-06-10T06:38:43.653Z,69.50
2019-06-10T06:41:13.636Z,68.35
2019-06-10T06:43:45.284Z,66.66
2019-06-10T06:46:12.974Z,65.18
2019-06-10T06:48:43.767Z,66.71
2019-06-10T06:51:13.216Z,65.78
2019-06-10T06:53:50.464Z,63.81
2019-06-10T06:56:12.853Z,63.85
2019-06-10T06:58:43.434Z,63.67
2019-06-10T07:01:14.548Z,64.39
2019-06-10T07:03:45.013Z,64.15
2019-06-10T07:06:14.911Z,61.79
2019-06-10T07:09:02.513Z,60.76
2019-06-10T07:11:18.883Z,61.36
2019-06-10T07:13:47.731Z,61.06
2019-06-10T07:16:16.380Z,60.86
2019-06-10T07:18:49.995Z,60.33
2019-06-10T07:21:15.456Z,61.63
2019-06-10T07:23:46.639Z,59.37
2019-06-10T07:26:14.477Z,60.10
2019-06-10T07:28:46.805Z,59.11
2019-06-10T07:31:23.263Z,60.17
2019-06-10T07:33:46.911Z,59.59
2019-06-10T07:36:14.488Z,56.89
2019-06-10T07:38:48.470Z,55.62
2019-06-10T07:41:13.509Z,56.29
2019-06-10T07:43:49.103Z,57.76
2019-06-10T07:46:13.546Z,56.49
2019-06-10T07:48:47.813Z,56.54
2019-06-10T07:51:13.258Z,56.54
2019-06-10T07:53:45.128Z,56.60
2019-06-10T07:56:13.058Z,55.83
2019-06-10T07:58:45.440Z,55.10
2019-06-10T08:01:13.185Z,57.62
2019-06-10T08:03:45.051Z,56.05
2019-06-10T08:06:12.786Z,56.60
2019-06-10T08:08:44.844Z,55.22
2019-06-10T08:11:13.659Z,58.14
2019-06-10T08:13:45.913Z,56.00
2019-06-10T08:16:13.310Z,54.41
2019-06-10T08:19:09.722Z,56.24
2019-06-10T08:21:12.518Z,54.42
2019-06-10T08:23:45.001Z,55.38
2019-06-10T08:26:12.735Z,55.43
2019-06-10T08:28:42.609Z,54.98
2019-06-10T08:31:12.332Z,52.62
2019-06-10T08:33:44.127Z,53.36
2019-06-10T08:36:13.638Z,54.81
2019-06-10T08:38:44.941Z,55.28
2019-06-10T08:41:12.484Z,56.18
2019-06-10T08:43:44.702Z,56.21
2019-06-10T08:46:13.138Z,53.99
2019-06-10T08:48:45.820Z,52.38
2019-06-10T08:51:12.622Z,51.51
2019-06-10T08:53:44.167Z,52.81
2019-06-10T08:56:13.071Z,54.03
2019-06-10T08:58:45.787Z,49.69
2019-06-10T09:01:13.476Z,51.18
2019-06-10T09:03:45.310Z,53.10
2019-06-10T09:06:13.332Z,50.49
2019-06-10T09:08:47.705Z,49.77
2019-06-10T09:11:13.084Z,53.27
2019-06-10T09:13:45.303Z,52.76
2019-06-10T09:16:18.982Z,49.63
2019-06-10T09:18:47.350Z,50.02
2019-06-10T09:21:13.050Z,52.61
2019-06-10T09:23:43.548Z,49.60
2019-06-10T09:26:12.595Z,53.50
2019-06-10T09:28:48.294Z,51.03
2019-06-10T09:31:13.986Z,50.83
2019-06-10T09:33:48.416Z,53.02
2019-06-10T09:36:13.103Z,49.99
2019-06-10T09:38:46.746Z,51.30
2019-06-10T09:41:14.239Z,50.02
2019-06-10T09:43:47.311Z,50.60
2019-06-10T09:46:14.137Z,49.83
2019-06-10T09:48:47.117Z,52.93
2019-06-10T09:51:14.230Z,51.13
2019-06-10T09:53:52.383Z,50.38
2019-06-10T09:56:13.328Z,50.31
2019-06-10T09:58:46.038Z,50.28
2019-06-10T10:01:13.259Z,51.47
2019-06-10T10:03:46.930Z,49.76
2019-06-10T10:06:15.826Z,46.88
2019-06-10T10:08:46.067Z,48.65
2019-06-10T10:11:13.799Z,50.46
2019-06-10T10:13:45.281Z,47.40
2019-06-10T10:16:13.356Z,51.16
2019-06-10T10:18:45.807Z,48.75
2019-06-10T10:21:13.203Z,48.47
2019-06-10T10:23:52.433Z,47.09
2019-06-10T10:26:13.102Z,49.80
2019-06-10T10:28:44.666Z,47.57
2019-06-10T10:31:13.375Z,47.56
2019-06-10T10:33:42.724Z,46.39
2019-06-10T10:36:14.049Z,45.25
2019-06-10T10:38:42.593Z,45.83
2019-06-10T10:41:13.419Z,46.38
2019-06-10T10:43:43.622Z,44.44
2019-06-10T10:46:13.867Z,45.31
2019-06-10T10:48:43.071Z,46.24
2019-06-10T10:51:12.944Z,46.15
2019-06-10T10:53:46.529Z,46.32
2019-06-10T10:56:13.286Z,50.38
2019-06-10T10:58:43.663Z,49.83
2019-06-10T11:01:15.038Z,48.34
2019-06-10T11:03:45.438Z,46.14
2019-06-10T11:06:13.559Z,47.03
2019-06-10T11:08:44.639Z,46.90
2019-06-10T11:11:14.372Z,45.53
2019-06-10T11:13:45.513Z,50.42
2019-06-10T11:16:14.557Z,46.04
2019-06-10T11:18:43.266Z,47.62
2019-06-10T11:21:13.307Z,50.47
2019-06-10T11:23:43.572Z,51.34
2019-06-10T11:26:13.233Z,55.34
2019-06-10T11:28:43.306Z,55.82
2019-06-10T11:31:13.993Z,53.05
2019-06-10T11:33:43.432Z,48.16
2019-06-10T11:36:13.564Z,51.35
2019-06-10T11:38:42.376Z,48.92
2019-06-10T11:41:13.543Z,49.04
2019-06-10T11:43:43.039Z,48.86
2019-06-10T11:46:13.747Z,49.13
2019-06-10T11:48:43.503Z,50.86
2019-06-10T11:51:13.343Z,49.94
2019-06-10T11:53:44.023Z,51.38
2019-06-10T11:56:13.296Z,49.45
2019-06-10T11:58:43.613Z,52.90
2019-06-10T12:01:13.363Z,52.62
2019-06-10T12:03:43.139Z,49.07
2019-06-10T12:06:13.625Z,51.54
2019-06-10T12:08:43.702Z,53.77
2019-06-10T12:11:12.997Z,52.75
2019-06-10T12:13:42.835Z,48.25
2019-06-10T12:17:11.294Z,53.20
2019-06-10T12:18:42.785Z,55.14
2019-06-10T12:21:13.054Z,50.32
2019-06-10T12:23:43.591Z,49.40
2019-06-10T12:26:12.226Z,52.05
2019-06-10T12:28:43.147Z,50.45
2019-06-10T12:31:13.529Z,56.70
2019-06-10T12:33:42.308Z,56.03
2019-06-10T12:36:12.943Z,49.82
2019-06-10T12:38:43.444Z,49.29
2019-06-10T12:41:14.062Z,47.96
2019-06-10T12:43:43.482Z,49.31
2019-06-10T12:46:12.921Z,48.38
2019-06-10T12:48:42.637Z,48.34
2019-06-10T12:51:13.477Z,48.87
2019-06-10T12:53:43.161Z,50.14
2019-06-10T12:56:15.023Z,49.01
2019-06-10T12:58:43.347Z,50.17
2019-06-10T13:01:12.121Z,49.42
2019-06-10T13:03:43.608Z,49.84
2019-06-10T13:06:13.072Z,48.00
2019-06-10T13:08:43.728Z,50.51
2019-06-10T13:11:15.067Z,47.93
2019-06-10T13:13:43.993Z,47.82
2019-06-10T13:16:14.141Z,46.66
2019-06-10T13:18:43.119Z,46.35
2019-06-10T13:21:16.819Z,44.23
2019-06-10T13:23:43.249Z,46.26
2019-06-10T13:26:16.083Z,45.29
2019-06-10T13:28:44.345Z,45.21
2019-06-10T13:31:14.012Z,45.10
2019-06-10T13:33:43.108Z,46.35
2019-06-10T13:36:12.434Z,45.82
2019-06-10T13:38:42.873Z,49.27
2019-06-10T13:41:11.691Z,46.25
2019-06-10T13:43:40.280Z,44.85
2019-06-10T13:46:11.059Z,46.06
2019-06-10T13:48:39.905Z,46.50
2019-06-10T13:51:12.129Z,49.19
2019-06-10T13:53:42.605Z,48.30
2019-06-10T13:56:32.364Z,48.82
2019-06-10T13:58:45.013Z,47.99
2019-06-10T14:01:20.789Z,46.83
2019-06-10T14:03:43.137Z,45.27
2019-06-10T14:06:31.900Z,44.85
2019-06-10T14:08:43.755Z,44.11
2019-06-10T14:11:13.408Z,43.48
2019-06-10T14:13:43.273Z,42.81
2019-06-10T14:16:14.201Z,44.30
2019-06-10T14:18:43.100Z,41.49
2019-06-10T14:21:17.992Z,42.49
2019-06-10T14:23:42.465Z,41.92
2019-06-10T14:26:14.773Z,42.71
2019-06-10T14:28:44.252Z,45.07
2019-06-10T14:31:37.621Z,47.41
2019-06-10T14:33:42.932Z,42.95
2019-06-10T14:36:15.092Z,45.25
2019-06-10T14:38:42.150Z,45.15
2019-06-10T14:41:12.189Z,44.59
2019-06-10T14:43:42.446Z,47.36
2019-06-10T14:46:14.383Z,44.64
2019-06-10T14:48:42.680Z,41.75
2019-06-10T14:51:14.896Z,41.11
2019-06-10T14:53:42.711Z,37.77
2019-06-10T14:56:14.885Z,40.22
2019-06-10T14:58:42.552Z,43.63
2019-06-10T15:01:13.460Z,39.29
2019-06-10T15:03:42.909Z,44.91
2019-06-10T15:06:11.759Z,41.65
2019-06-10T15:08:42.796Z,39.87
2019-06-10T15:11:11.692Z,37.27
2019-06-10T15:13:43.311Z,39.46
2019-06-10T15:16:12.173Z,37.67
2019-06-10T15:18:43.068Z,39.23
2019-06-10T15:21:11.360Z,37.08
2019-06-10T15:23:40.060Z,38.16
2019-06-10T15:26:13.124Z,39.69
2019-06-10T15:28:42.712Z,42.75
2019-06-10T15:31:13.467Z,43.81
2019-06-10T15:33:43.087Z,48.05
2019-06-10T15:36:13.117Z,43.25
2019-06-10T15:38:43.859Z,48.58
2019-06-10T15:41:16.059Z,42.00
2019-06-10T15:43:42.498Z,41.61
2019-06-10T15:46:12.943Z,40.75
2019-06-10T15:48:42.988Z,39.52
2019-06-10T15:51:15.437Z,39.32
2019-06-10T15:53:43.087Z,42.09
2019-06-10T15:56:23.784Z,45.34
2019-06-10T15:58:43.016Z,44.90
2019-06-10T16:01:16.375Z,42.69
2019-06-10T16:03:42.585Z,45.91
2019-06-10T16:06:12.168Z,44.53
2019-06-10T16:08:42.949Z,45.69
2019-06-10T16:11:13.844Z,46.47
2019-06-10T16:13:42.975Z,47.17
2019-06-10T16:16:12.802Z,50.18
2019-06-10T16:18:42.376Z,49.72
2019-06-10T16:21:13.267Z,51.33
2019-06-10T16:23:43.020Z,49.52
2019-06-10T16:26:13.056Z,48.32
2019-06-10T16:28:42.819Z,48.24
2019-06-10T16:31:13.085Z,49.18
2019-06-10T16:33:49.141Z,47.54
2019-06-10T16:36:12.378Z,47.27
2019-06-10T16:38:42.292Z,49.54
2019-06-10T16:41:12.329Z,49.54
2019-06-10T16:43:42.858Z,47.22
2019-06-10T16:46:11.602Z,50.57
2019-06-10T16:48:40.417Z,48.10
2019-06-10T16:51:13.303Z,45.94
2019-06-10T16:53:42.642Z,49.03
2019-06-10T16:56:12.144Z,49.64
2019-06-10T16:58:43.262Z,50.21
2019-06-10T17:01:12.532Z,48.99
2019-06-10T17:03:42.535Z,48.83
2019-06-10T17:06:13.094Z,49.20
2019-06-10T17:08:42.604Z,49.38
2019-06-10T17:11:12.416Z,51.42
2019-06-10T17:13:42.225Z,50.97
2019-06-10T17:16:12.742Z,51.00
2019-06-10T17:18:41.484Z,51.73
2019-06-10T17:21:13.068Z,52.15
2019-06-10T17:23:43.405Z,52.29
2019-06-10T17:26:12.725Z,50.77
2019-06-10T17:28:42.832Z,50.22
2019-06-10T17:31:12.289Z,51.52
2019-06-10T17:33:42.696Z,50.57
2019-06-10T17:36:12.614Z,49.45
2019-06-10T17:38:42.982Z,50.75
2019-06-10T17:41:13.249Z,49.43
2019-06-10T17:43:42.914Z,49.29
2019-06-10T17:46:13.606Z,50.79
2019-06-10T17:48:43.136Z,49.81
2019-06-10T17:51:12.092Z,50.03
2019-06-10T17:53:42.703Z,50.22
2019-06-10T17:56:13.328Z,49.61
2019-06-10T17:58:51.588Z,50.90
2019-06-10T18:01:13.022Z,50.89
2019-06-10T18:03:43.034Z,51.24
2019-06-10T18:06:13.349Z,53.68
2019-06-10T18:08:42.161Z,53.14
2019-06-10T18:11:12.840Z,53.32
2019-06-10T18:13:42.882Z,53.23
2019-06-10T18:16:13.172Z,53.19
2019-06-10T18:18:42.685Z,53.62
2019-06-10T18:21:12.663Z,53.97
2019-06-10T18:23:43.541Z,54.07
2019-06-10T18:26:12.514Z,53.90
2019-06-10T18:28:57.920Z,54.06
2019-06-10T18:31:12.043Z,55.79
2019-06-10T18:33:42.548Z,56.66
2019-06-10T18:36:12.199Z,57.24
2019-06-10T18:38:43.369Z,57.84
2019-06-10T18:41:12.894Z,56.18
2019-06-10T18:43:41.773Z,56.55
2019-06-10T18:46:12.789Z,56.98
2019-06-10T18:48:43.185Z,56.73
2019-06-10T18:51:12.598Z,56.41
2019-06-10T18:53:42.546Z,56.56
2019-06-10T18:56:12.851Z,56.63
2019-06-10T18:58:42.516Z,56.88
2019-06-10T19:01:12.455Z,57.59
2019-06-10T19:03:43.038Z,58.75
2019-06-10T19:06:12.548Z,60.03
2019-06-10T19:08:44.381Z,61.20
2019-06-10T19:11:12.038Z,61.80
2019-06-10T19:13:43.294Z,61.75
2019-06-10T19:16:12.948Z,62.94
2019-06-10T19:18:43.171Z,63.52
2019-06-10T19:21:12.815Z,63.72
2019-06-10T19:23:43.931Z,65.46
2019-06-10T19:26:13.464Z,65.83
2019-06-10T19:28:45.097Z,66.85
2019-06-10T19:31:12.907Z,67.17
2019-06-10T19:33:45.139Z,67.79
2019-06-10T19:36:12.727Z,68.44
2019-06-10T19:38:44.065Z,68.83
2019-06-10T19:41:12.055Z,69.57
2019-06-10T19:43:43.991Z,70.40
2019-06-10T19:46:12.867Z,70.36
2019-06-10T19:48:51.000Z,70.59
2019-06-10T19:51:12.571Z,71.29
2019-06-10T19:53:43.809Z,71.95
2019-06-10T19:56:13.045Z,72.15
2019-06-10T19:58:43.444Z,72.47
2019-06-10T20:01:14.804Z,72.95
2019-06-10T20:03:46.455Z,73.29
2019-06-10T20:06:13.935Z,73.70
2019-06-10T20:08:45.727Z,74.05
2019-06-10T20:11:13.180Z,74.42
2019-06-10T20:13:43.626Z,74.97
2019-06-10T20:16:12.359Z,75.05
2019-06-10T20:18:45.188Z,75.14
2019-06-10T20:21:12.848Z,75.44
2019-06-10T20:23:44.549Z,75.85
2019-06-10T20:26:12.320Z,76.34
2019-06-10T20:28:43.329Z,77.19
2019-06-10T20:31:12.751Z,77.03
2019-06-10T20:33:43.114Z,77.42
2019-06-10T20:36:21.225Z,77.59
2019-06-10T20:38:46.420Z,77.98
2019-06-10T20:41:12.943Z,78.16
2019-06-10T20:43:43.865Z,78.22
2019-06-10T20:46:13.100Z,78.67
2019-06-10T20:48:45.396Z,78.60
2019-06-10T20:51:12.889Z,78.73
2019-06-10T20:53:43.202Z,79.11
2019-06-10T20:56:12.529Z,79.14
2019-06-10T20:58:43.377Z,79.64
2019-06-10T21:01:11.670Z,79.57
2019-06-10T21:03:43.287Z,80.18
2019-06-10T21:06:13.089Z,79.92
2019-06-10T21:08:46.776Z,80.06
2019-06-10T21:11:13.721Z,80.16
2019-06-10T21:13:46.933Z,80.15
2019-06-10T21:16:12.798Z,80.52
2019-06-10T21:18:45.291Z,80.27
2019-06-10T21:21:11.807Z,80.23
2019-06-10T21:23:42.986Z,80.37
2019-06-10T21:26:12.988Z,80.39
2019-06-10T21:28:45.591Z,80.90
2019-06-10T21:31:11.948Z,81.22
2019-06-10T21:33:43.806Z,81.27
2019-06-10T21:36:12.424Z,81.30
2019-06-10T21:38:43.811Z,81.33
2019-06-10T21:41:12.356Z,82.39
2019-06-10T21:43:45.938Z,83.70
2019-06-10T21:46:13.185Z,84.14
2019-06-10T21:48:44.457Z,85.06
2019-06-10T21:51:13.098Z,85.79
2019-06-10T21:53:42.436Z,86.08
2019-06-10T21:56:12.820Z,86.84
2019-06-10T21:58:43.520Z,86.03
2019-06-10T22:01:14.200Z,87.46
2019-06-10T22:03:47.125Z,90.82
2019-06-10T22:06:13.865Z,90.63
2019-06-10T22:08:44.070Z,89.08
2019-06-10T22:11:13.847Z,93.00
2019-06-10T22:13:43.979Z,98.44
2019-06-10T22:16:13.325Z,100.00
2019-06-10T22:18:42.243Z,100.00
2019-06-10T22:21:14.565Z,100.00
2019-06-10T22:23:42.330Z,100.00
2019-06-10T22:26:12.940Z,100.00
2019-06-10T22:28:43.272Z,100.00
2019-06-10T22:31:22.415Z,100.00
2019-06-10T22:33:43.140Z,100.00
2019-06-10T22:36:12.995Z,100.00
2019-06-10T22:38:41.668Z,100.00
2019-06-10T22:41:12.292Z,100.00
2019-06-10T22:43:42.661Z,100.00
2019-06-10T22:46:11.339Z,100.00
2019-06-10T22:48:42.373Z,100.00
2019-06-10T22:51:12.302Z,100.00
2019-06-10T22:53:42.471Z,100.00
2019-06-10T22:56:12.324Z,100.00
2019-06-10T22:58:41.220Z,100.00
2019-06-10T23:01:12.510Z,100.00
2019-06-10T23:03:40.821Z,100.00
2019-06-10T23:06:09.515Z,100.00
2019-06-10T23:08:38.284Z,100.00
2019-06-10T23:11:08.661Z,100.00
2019-06-10T23:13:37.533Z,100.00
2019-06-10T23:16:08.653Z,100.00
2019-06-10T23:18:37.320Z,100.00
2019-06-10T23:21:06.194Z,100.00
2019-06-10T23:23:34.972Z,100.00
2019-06-10T23:26:03.804Z,100.00
2019-06-10T23:28:32.818Z,100.00
2019-06-10T23:31:02.461Z,100.00
2019-06-10T23:33:32.454Z,100.00
2019-06-10T23:36:03.731Z,100.00
2019-06-10T23:38:32.892Z,100.00
2019-06-10T23:41:03.723Z,100.00
2019-06-10T23:43:33.136Z,100.00
2019-06-10T23:46:04.113Z,100.00
2019-06-10T23:48:32.932Z,100.00
2019-06-10T23:51:04.741Z,100.00
2019-06-10T23:53:32.828Z,100.00
2019-06-10T23:56:04.718Z,100.00
2019-06-10T23:58:32.915Z,100.00
